createdAt,value
2022-09-12T00:01:55.443Z,100.00
2022-09-12T00:04:24.803Z,100.00
2022-09-12T00:06:58.841Z,100.00
2022-09-12T00:09:29.608Z,100.00
2022-09-12T00:11:57.916Z,100.00
2022-09-12T00:14:29.293Z,100.00
2022-09-12T00:16:59.539Z,100.00
2022-09-12T00:19:27.874Z,100.00
2022-09-12T00:21:56.583Z,100.00
2022-09-12T00:24:24.963Z,100.00
2022-09-12T00:26:54.749Z,100.00
2022-09-12T00:29:23.573Z,100.00
2022-09-12T00:31:55.044Z,100.00
2022-09-12T00:34:23.676Z,100.00
2022-09-12T00:36:51.868Z,100.00
2022-09-12T00:39:21.189Z,100.00
2022-09-12T00:41:49.278Z,100.00
2022-09-12T00:44:48.087Z,100.00
2022-09-12T00:47:19.464Z,100.00
2022-09-12T00:49:51.303Z,100.00
2022-09-12T00:52:25.628Z,100.00
2022-09-12T00:54:58.221Z,100.00
2022-09-12T00:57:28.636Z,100.00
2022-09-12T01:00:00.261Z,100.00
2022-09-12T01:02:29.173Z,100.00
2022-09-12T01:04:57.477Z,100.00
2022-09-12T01:07:25.932Z,100.00
2022-09-12T01:09:54.778Z,100.00
2022-09-12T01:12:23.212Z,100.00
2022-09-12T01:14:51.797Z,100.00
2022-09-12T01:17:22.025Z,100.00
2022-09-12T01:20:26.587Z,100.00
2022-09-12T01:23:29.587Z,100.00
2022-09-12T01:26:04.384Z,100.00
2022-09-12T01:28:46.439Z,100.00
2022-09-12T01:31:18.419Z,100.00
2022-09-12T01:33:53.609Z,100.00
2022-09-12T01:36:41.101Z,100.00
2022-09-12T01:39:14.323Z,100.00
2022-09-12T01:41:46.438Z,100.00
2022-09-12T01:44:16.660Z,100.00
2022-09-12T01:46:53.207Z,100.00
2022-09-12T01:49:23.916Z,100.00
2022-09-12T01:51:57.359Z,100.00
2022-09-12T01:54:28.279Z,100.00
2022-09-12T01:56:57.699Z,100.00
2022-09-12T01:59:27.761Z,100.00
2022-09-12T02:02:03.200Z,100.00
2022-09-12T02:04:34.372Z,100.00
2022-09-12T02:07:05.894Z,100.00
2022-09-12T02:09:41.171Z,100.00
2022-09-12T02:12:11.254Z,100.00
2022-09-12T02:14:41.799Z,100.00
2022-09-12T02:17:14.508Z,100.00
2022-09-12T02:19:47.848Z,100.00
2022-09-12T02:22:21.978Z,100.00
2022-09-12T02:24:54.183Z,100.00
2022-09-12T02:27:24.153Z,100.00
2022-09-12T02:29:52.540Z,100.00
2022-09-12T02:32:27.066Z,100.00
2022-09-12T02:34:59.065Z,100.00
2022-09-12T02:37:34.070Z,100.00
2022-09-12T02:40:03.933Z,100.00
2022-09-12T02:42:32.142Z,100.00
2022-09-12T02:45:00.943Z,100.00
2022-09-12T02:47:31.543Z,100.00
2022-09-12T02:50:00.230Z,100.00
2022-09-12T02:52:28.652Z,100.00
2022-09-12T02:54:57.882Z,100.00
2022-09-12T02:57:26.895Z,100.00
2022-09-12T02:59:57.123Z,100.00
2022-09-12T03:03:01.174Z,100.00
2022-09-12T03:05:33.251Z,100.00
2022-09-12T03:08:33.118Z,100.00
2022-09-12T03:11:11.700Z,100.00
2022-09-12T03:13:43.256Z,100.00
2022-09-12T03:16:16.385Z,100.00
2022-09-12T03:18:52.235Z,100.00
2022-09-12T03:21:23.557Z,100.00
2022-09-12T03:23:57.389Z,100.00
2022-09-12T03:26:28.686Z,100.00
2022-09-12T03:28:56.922Z,100.00
2022-09-12T03:31:25.544Z,100.00
2022-09-12T03:33:56.730Z,100.00
2022-09-12T03:36:25.993Z,100.00
2022-09-12T03:38:56.864Z,100.00
2022-09-12T03:41:27.904Z,100.00
2022-09-12T03:43:57.121Z,100.00
2022-09-12T03:46:25.221Z,100.00
2022-09-12T03:48:56.448Z,100.00
2022-09-12T03:51:26.061Z,100.00
2022-09-12T03:53:54.155Z,100.00
2022-09-12T03:56:22.662Z,100.00
2022-09-12T03:58:51.134Z,100.00
2022-09-12T04:01:20.844Z,100.00
2022-09-12T04:03:49.849Z,100.00
2022-09-12T04:06:22.534Z,100.00
2022-09-12T04:08:51.662Z,100.00
2022-09-12T04:11:20.427Z,100.00
2022-09-12T04:13:50.587Z,100.00
2022-09-12T04:16:19.216Z,100.00
2022-09-12T04:18:49.445Z,100.00
2022-09-12T04:21:22.583Z,100.00
2022-09-12T04:23:51.462Z,100.00
2022-09-12T04:26:19.967Z,100.00
2022-09-12T04:28:48.590Z,100.00
2022-09-12T04:31:20.793Z,100.00
2022-09-12T04:33:49.370Z,100.00
2022-09-12T04:36:19.597Z,100.00
2022-09-12T04:38:48.162Z,100.00
2022-09-12T04:41:17.292Z,100.00
2022-09-12T04:43:46.580Z,100.00
2022-09-12T04:46:19.894Z,100.00
2022-09-12T04:48:51.353Z,100.00
2022-09-12T04:51:27.940Z,100.00
2022-09-12T04:53:57.955Z,100.00
2022-09-12T04:56:26.677Z,100.00
2022-09-12T04:58:55.259Z,100.00
2022-09-12T05:01:23.468Z,100.00
2022-09-12T05:03:53.630Z,100.00
2022-09-12T05:06:26.049Z,100.00
2022-09-12T05:08:56.092Z,100.00
2022-09-12T05:11:33.008Z,100.00
2022-09-12T05:14:10.555Z,100.00
2022-09-12T05:16:41.332Z,100.00
2022-09-12T05:19:11.428Z,100.00
2022-09-12T05:21:41.323Z,100.00
2022-09-12T05:24:13.542Z,100.00
2022-09-12T05:26:43.332Z,100.00
2022-09-12T05:29:13.284Z,100.00
2022-09-12T05:31:41.646Z,100.00
2022-09-12T05:34:10.219Z,100.00
2022-09-12T05:36:40.761Z,100.00
2022-09-12T05:39:09.047Z,100.00
2022-09-12T05:41:38.439Z,100.00
2022-09-12T05:44:08.253Z,100.00
2022-09-12T05:46:39.095Z,100.00
2022-09-12T05:49:09.985Z,100.00
2022-09-12T05:51:42.520Z,100.00
2022-09-12T05:54:12.288Z,100.00
2022-09-12T05:56:41.526Z,100.00
2022-09-12T05:59:13.217Z,100.00
2022-09-12T06:01:48.915Z,100.00
2022-09-12T06:04:17.156Z,100.00
2022-09-12T06:06:47.045Z,100.00
2022-09-12T06:09:15.557Z,100.00
2022-09-12T06:11:43.768Z,100.00
2022-09-12T06:14:13.013Z,100.00
2022-09-12T06:16:42.860Z,100.00
2022-09-12T06:19:15.558Z,100.00
2022-09-12T06:21:43.853Z,100.00
2022-09-12T06:24:13.361Z,100.00
2022-09-12T06:26:41.436Z,100.00
2022-09-12T06:29:13.762Z,100.00
2022-09-12T06:31:45.891Z,100.00
2022-09-12T06:34:16.130Z,100.00
2022-09-12T06:36:45.198Z,100.00
2022-09-12T06:39:16.570Z,100.00
2022-09-12T06:41:45.210Z,100.00
2022-09-12T06:44:18.496Z,100.00
2022-09-12T06:46:47.656Z,100.00
2022-09-12T06:49:15.929Z,100.00
2022-09-12T06:51:49.854Z,100.00
2022-09-12T06:54:20.238Z,100.00
2022-09-12T06:56:49.000Z,100.00
2022-09-12T06:59:17.699Z,100.00
2022-09-12T07:01:45.897Z,100.00
2022-09-12T07:04:14.096Z,100.00
2022-09-12T07:06:44.671Z,100.00
2022-09-12T07:09:13.675Z,100.00
2022-09-12T07:11:43.648Z,100.00
2022-09-12T07:14:13.170Z,100.00
2022-09-12T07:16:41.414Z,100.00
2022-09-12T07:19:11.153Z,100.00
2022-09-12T07:21:41.015Z,100.00
2022-09-12T07:24:10.873Z,100.00
2022-09-12T07:26:40.142Z,100.00
2022-09-12T07:32:02.543Z,100.00
2022-09-12T07:34:37.089Z,100.00
2022-09-12T07:37:06.318Z,100.00
2022-09-12T07:39:34.847Z,100.00
2022-09-12T07:42:03.743Z,100.00
2022-09-12T07:44:33.292Z,100.00
2022-09-12T07:47:10.727Z,100.00
2022-09-12T07:49:46.609Z,100.00
2022-09-12T07:52:17.547Z,100.00
2022-09-12T07:54:46.061Z,100.00
2022-09-12T07:57:21.398Z,100.00
2022-09-12T07:59:53.344Z,100.00
2022-09-12T08:02:21.752Z,100.00
2022-09-12T08:04:52.927Z,100.00
2022-09-12T08:07:23.524Z,100.00
2022-09-12T08:09:51.608Z,100.00
2022-09-12T08:12:21.720Z,100.00
2022-09-12T08:14:52.067Z,100.00
2022-09-12T08:17:20.263Z,100.00
2022-09-12T08:19:48.654Z,100.00
2022-09-12T08:22:16.830Z,100.00
2022-09-12T08:24:44.859Z,100.00
2022-09-12T08:27:12.957Z,100.00
2022-09-12T08:29:41.000Z,100.00
2022-09-12T08:32:10.928Z,100.00
2022-09-12T08:34:38.955Z,100.00
2022-09-12T08:37:06.915Z,100.00
2022-09-12T08:39:35.407Z,100.00
2022-09-12T08:42:04.331Z,100.00
2022-09-12T08:44:56.753Z,100.00
2022-09-12T08:47:29.045Z,100.00
2022-09-12T08:50:01.909Z,100.00
2022-09-12T08:52:31.485Z,100.00
2022-09-12T08:54:59.803Z,100.00
2022-09-12T08:57:27.840Z,100.00
2022-09-12T08:59:59.503Z,99.13
2022-09-12T09:02:48.636Z,96.85
2022-09-12T09:05:21.371Z,98.85
2022-09-12T09:08:05.741Z,94.20
2022-09-12T09:10:38.316Z,97.04
2022-09-12T09:13:10.620Z,98.33
2022-09-12T09:15:44.766Z,90.38
2022-09-12T09:18:17.856Z,90.70
2022-09-12T09:20:48.176Z,86.25
2022-09-12T09:23:17.779Z,86.27
2022-09-12T09:25:50.246Z,85.59
2022-09-12T09:28:20.504Z,79.68
2022-09-12T09:30:48.794Z,80.75
2022-09-12T09:33:23.551Z,79.45
2022-09-12T09:35:56.978Z,81.34
2022-09-12T09:38:26.747Z,80.68
2022-09-12T09:41:02.863Z,76.22
2022-09-12T09:43:31.308Z,75.13
2022-09-12T09:46:00.505Z,68.83
2022-09-12T09:48:31.324Z,70.26
2022-09-12T09:51:01.903Z,68.83
2022-09-12T09:53:44.095Z,64.38
2022-09-12T09:56:14.002Z,66.12
2022-09-12T09:58:42.652Z,65.56
2022-09-12T10:01:15.455Z,65.86
2022-09-12T10:03:50.100Z,59.60
2022-09-12T10:06:26.801Z,60.51
2022-09-12T10:09:06.654Z,59.13
2022-09-12T10:11:34.916Z,57.26
2022-09-12T10:14:31.760Z,57.85
2022-09-12T10:17:02.973Z,56.84
2022-09-12T10:19:40.316Z,57.69
2022-09-12T10:22:08.481Z,53.74
2022-09-12T10:24:38.237Z,54.35
2022-09-12T10:27:17.157Z,54.73
2022-09-12T10:29:48.550Z,57.21
2022-09-12T10:32:48.904Z,53.85
2022-09-12T10:35:20.758Z,56.34
2022-09-12T10:37:58.388Z,53.35
2022-09-12T10:40:39.006Z,50.08
2022-09-12T10:43:17.858Z,52.15
2022-09-12T10:45:46.712Z,53.80
2022-09-12T10:48:25.871Z,52.80
2022-09-12T10:50:56.870Z,56.66
2022-09-12T10:53:28.977Z,57.99
2022-09-12T10:56:07.397Z,52.71
2022-09-12T10:58:56.750Z,53.32
2022-09-12T11:01:36.804Z,51.55
2022-09-12T11:04:40.023Z,51.81
2022-09-12T11:07:21.084Z,53.63
2022-09-12T11:09:53.268Z,54.00
2022-09-12T11:12:23.374Z,51.84
2022-09-12T11:15:00.364Z,47.80
2022-09-12T11:17:35.302Z,45.87
2022-09-12T11:20:13.941Z,48.62
2022-09-12T11:23:08.161Z,48.41
2022-09-12T11:25:37.494Z,48.77
2022-09-12T11:28:15.507Z,45.57
2022-09-12T11:30:57.361Z,47.87
2022-09-12T11:33:43.044Z,47.84
2022-09-12T11:36:20.274Z,46.73
2022-09-12T11:39:05.275Z,45.19
2022-09-12T11:41:41.287Z,46.33
2022-09-12T11:44:17.340Z,45.28
2022-09-12T11:46:49.907Z,45.22
2022-09-12T11:49:24.244Z,49.78
2022-09-12T11:51:54.860Z,49.58
2022-09-12T11:54:26.229Z,49.17
2022-09-12T11:56:57.604Z,47.99
2022-09-12T11:59:34.182Z,48.99
2022-09-12T12:02:03.861Z,46.45
2022-09-12T12:04:38.513Z,44.59
2022-09-12T12:07:08.118Z,45.46
2022-09-12T12:09:47.610Z,47.19
2022-09-12T12:12:18.850Z,49.60
2022-09-12T12:14:48.437Z,45.84
2022-09-12T12:17:17.645Z,45.92
2022-09-12T12:19:45.747Z,44.04
2022-09-12T12:22:18.608Z,46.17
2022-09-12T12:25:04.373Z,46.59
2022-09-12T12:27:55.660Z,46.44
2022-09-12T12:31:02.000Z,46.97
2022-09-12T12:33:57.180Z,46.04
2022-09-12T12:36:35.115Z,49.66
2022-09-12T12:39:55.613Z,50.49
2022-09-12T12:43:08.628Z,48.33
2022-09-12T12:46:13.591Z,50.73
2022-09-12T12:48:49.736Z,49.13
2022-09-12T12:51:48.608Z,52.24
2022-09-12T12:54:58.914Z,51.54
2022-09-12T12:57:48.038Z,52.12
2022-09-12T13:00:34.330Z,51.25
2022-09-12T13:03:12.878Z,52.07
2022-09-12T13:05:43.919Z,51.27
2022-09-12T13:08:23.917Z,50.07
2022-09-12T13:10:53.545Z,51.66
2022-09-12T13:13:25.947Z,51.79
2022-09-12T13:15:55.671Z,52.42
2022-09-12T13:18:29.562Z,54.13
2022-09-12T13:21:06.666Z,52.84
2022-09-12T13:23:36.595Z,53.18
2022-09-12T13:26:05.145Z,55.02
2022-09-12T13:28:33.572Z,54.50
2022-09-12T13:31:04.383Z,54.13
2022-09-12T13:33:39.376Z,55.29
2022-09-12T13:36:46.806Z,54.72
2022-09-12T13:39:35.432Z,54.57
2022-09-12T13:42:28.888Z,55.34
2022-09-12T13:44:58.906Z,52.05
2022-09-12T13:47:31.010Z,52.89
2022-09-12T13:50:50.196Z,55.40
2022-09-12T13:53:21.540Z,57.75
2022-09-12T13:55:56.713Z,60.29
2022-09-12T13:58:25.484Z,57.42
2022-09-12T14:01:07.564Z,55.26
2022-09-12T14:03:59.062Z,55.79
2022-09-12T14:06:31.275Z,56.66
2022-09-12T14:09:02.251Z,55.85
2022-09-12T14:11:34.650Z,59.67
2022-09-12T14:14:04.186Z,53.52
2022-09-12T14:16:32.460Z,55.44
2022-09-12T14:19:01.348Z,55.67
2022-09-12T14:21:35.413Z,55.65
2022-09-12T14:24:04.909Z,58.03
2022-09-12T14:26:37.085Z,57.47
2022-09-12T14:29:06.689Z,58.46
2022-09-12T14:31:36.102Z,58.74
2022-09-12T14:34:14.087Z,58.16
2022-09-12T14:36:48.107Z,57.51
2022-09-12T14:39:23.087Z,56.03
2022-09-12T14:41:53.623Z,56.05
2022-09-12T14:44:23.843Z,55.40
2022-09-12T14:46:52.211Z,58.75
2022-09-12T14:49:22.868Z,59.03
2022-09-12T14:51:56.570Z,62.07
2022-09-12T14:54:51.593Z,61.04
2022-09-12T14:57:39.747Z,65.93
2022-09-12T15:00:21.088Z,63.70
2022-09-12T15:03:21.302Z,62.62
2022-09-12T15:06:54.689Z,63.74
2022-09-12T15:09:28.900Z,67.17
2022-09-12T15:11:57.672Z,64.01
2022-09-12T15:14:53.741Z,61.76
2022-09-12T15:17:24.246Z,62.90
2022-09-12T15:19:53.410Z,64.05
2022-09-12T15:22:21.839Z,69.50
2022-09-12T15:24:50.486Z,70.84
2022-09-12T15:27:21.024Z,70.00
2022-09-12T15:29:56.513Z,68.78
2022-09-12T15:32:25.050Z,67.09
2022-09-12T15:34:55.728Z,73.01
2022-09-12T15:37:24.631Z,70.18
2022-09-12T15:39:53.499Z,71.34
2022-09-12T15:42:26.989Z,70.02
2022-09-12T15:45:02.515Z,71.08
2022-09-12T15:47:31.677Z,71.09
2022-09-12T15:49:59.763Z,70.82
2022-09-12T15:52:28.701Z,71.91
2022-09-12T15:54:59.295Z,71.78
2022-09-12T15:57:29.769Z,75.43
2022-09-12T15:59:59.770Z,74.40
2022-09-12T16:02:28.205Z,74.67
2022-09-12T16:04:56.319Z,78.12
2022-09-12T16:07:24.654Z,79.05
2022-09-12T16:09:52.865Z,81.51
2022-09-12T16:12:22.458Z,80.71
2022-09-12T16:14:51.604Z,78.41
2022-09-12T16:17:23.314Z,78.96
2022-09-12T16:19:51.918Z,81.08
2022-09-12T16:22:20.073Z,80.75
2022-09-12T16:24:48.185Z,82.02
2022-09-12T16:27:18.819Z,84.66
2022-09-12T16:29:47.139Z,83.74
2022-09-12T16:32:16.292Z,85.12
2022-09-12T16:34:50.817Z,87.57
2022-09-12T16:37:19.044Z,87.40
2022-09-12T16:39:49.167Z,87.90
2022-09-12T16:42:19.415Z,89.89
2022-09-12T16:44:47.848Z,89.18
2022-09-12T16:47:17.730Z,90.27
2022-09-12T16:49:56.473Z,91.25
2022-09-12T16:52:26.073Z,91.15
2022-09-12T16:54:57.360Z,91.36
2022-09-12T16:57:26.628Z,91.27
2022-09-12T17:01:00.902Z,91.11
2022-09-12T17:03:29.337Z,91.97
2022-09-12T17:06:50.082Z,93.28
2022-09-12T17:09:20.145Z,92.44
2022-09-12T17:11:49.718Z,93.73
2022-09-12T17:14:18.894Z,93.96
2022-09-12T17:16:52.013Z,95.43
2022-09-12T17:19:22.610Z,94.55
2022-09-12T17:21:54.628Z,95.77
2022-09-12T17:27:08.694Z,95.99
2022-09-12T17:29:50.959Z,95.88
2022-09-12T17:32:34.295Z,96.87
2022-09-12T17:35:04.568Z,96.43
2022-09-12T17:37:36.493Z,95.97
2022-09-12T17:40:07.333Z,96.77
2022-09-12T17:42:36.180Z,99.27
2022-09-12T17:45:04.498Z,99.41
2022-09-12T17:47:34.715Z,99.84
2022-09-12T17:50:29.981Z,100.00
2022-09-12T17:52:53.109Z,100.00
2022-09-12T17:55:22.926Z,100.00
2022-09-12T17:57:54.401Z,100.00
2022-09-12T18:00:43.254Z,100.00
2022-09-12T18:03:10.812Z,100.00
2022-09-12T18:05:48.180Z,100.00
2022-09-12T18:08:17.598Z,100.00
2022-09-12T18:10:49.925Z,100.00
2022-09-12T18:13:18.408Z,100.00
2022-09-12T18:15:47.912Z,100.00
2022-09-12T18:18:16.457Z,100.00
2022-09-12T18:20:52.111Z,100.00
2022-09-12T18:23:20.452Z,100.00
2022-09-12T18:25:50.480Z,100.00
2022-09-12T18:28:19.587Z,100.00
2022-09-12T18:30:47.840Z,100.00
2022-09-12T18:33:22.019Z,100.00
2022-09-12T18:35:52.404Z,100.00
2022-09-12T18:38:20.750Z,100.00
2022-09-12T18:40:50.620Z,100.00
2022-09-12T18:43:19.509Z,100.00
2022-09-12T18:45:48.956Z,100.00
2022-09-12T18:48:17.512Z,100.00
2022-09-12T18:50:46.104Z,100.00
2022-09-12T18:53:15.143Z,100.00
2022-09-12T18:55:43.631Z,100.00
2022-09-12T18:58:13.294Z,100.00
2022-09-12T19:00:41.689Z,100.00
2022-09-12T19:03:10.057Z,100.00
2022-09-12T19:05:38.394Z,100.00
2022-09-12T19:08:07.847Z,100.00
2022-09-12T19:10:39.473Z,100.00
2022-09-12T19:13:08.277Z,100.00
2022-09-12T19:15:43.003Z,100.00
2022-09-12T19:18:13.657Z,100.00
2022-09-12T19:20:42.011Z,100.00
2022-09-12T19:23:10.854Z,100.00
2022-09-12T19:25:40.837Z,100.00
2022-09-12T19:28:09.752Z,100.00
2022-09-12T19:30:44.320Z,100.00
2022-09-12T19:33:13.109Z,100.00
2022-09-12T19:35:41.665Z,100.00
2022-09-12T19:38:11.083Z,100.00
2022-09-12T19:40:39.840Z,100.00
2022-09-12T19:43:08.195Z,100.00
2022-09-12T19:45:36.788Z,100.00
2022-09-12T19:48:07.404Z,100.00
2022-09-12T19:50:35.911Z,100.00
2022-09-12T19:53:05.119Z,100.00
2022-09-12T19:55:33.593Z,100.00
2022-09-12T19:58:02.091Z,100.00
2022-09-12T20:00:31.250Z,100.00
2022-09-12T20:03:04.546Z,100.00
2022-09-12T20:05:34.598Z,100.00
2022-09-12T20:08:03.304Z,100.00
2022-09-12T20:10:31.394Z,100.00
2022-09-12T20:12:59.541Z,100.00
2022-09-12T20:15:28.170Z,100.00
2022-09-12T20:17:57.025Z,100.00
2022-09-12T20:20:26.781Z,100.00
2022-09-12T20:22:56.725Z,100.00
2022-09-12T20:25:24.825Z,100.00
2022-09-12T20:27:55.928Z,100.00
2022-09-12T20:30:28.535Z,100.00
2022-09-12T20:32:58.634Z,100.00
2022-09-12T20:35:27.037Z,100.00
2022-09-12T20:37:56.532Z,100.00
2022-09-12T20:40:25.364Z,100.00
2022-09-12T20:42:53.472Z,100.00
2022-09-12T20:45:22.556Z,100.00
2022-09-12T20:47:52.205Z,100.00
2022-09-12T20:50:23.139Z,100.00
2022-09-12T20:52:52.732Z,100.00
2022-09-12T20:55:23.091Z,100.00
2022-09-12T20:57:51.625Z,100.00
2022-09-12T21:00:20.501Z,100.00
2022-09-12T21:02:50.758Z,100.00
2022-09-12T21:05:19.658Z,100.00
2022-09-12T21:07:48.201Z,100.00
2022-09-12T21:10:19.125Z,100.00
2022-09-12T21:12:49.679Z,100.00
2022-09-12T21:15:17.897Z,100.00
2022-09-12T21:17:46.621Z,100.00
2022-09-12T21:20:15.354Z,100.00
2022-09-12T21:22:45.051Z,100.00
2022-09-12T21:25:14.825Z,100.00
2022-09-12T21:27:44.234Z,100.00
2022-09-12T21:30:16.007Z,100.00
2022-09-12T21:32:47.375Z,100.00
2022-09-12T21:35:16.089Z,100.00
2022-09-12T21:37:46.948Z,100.00
2022-09-12T21:40:17.381Z,100.00
2022-09-12T21:42:49.058Z,100.00
2022-09-12T21:45:19.117Z,100.00
2022-09-12T21:47:47.894Z,100.00
2022-09-12T21:50:16.211Z,100.00
2022-09-12T21:52:45.720Z,100.00
2022-09-12T21:55:17.127Z,100.00
2022-09-12T21:57:45.498Z,100.00
2022-09-12T22:00:15.811Z,100.00
2022-09-12T22:02:47.102Z,100.00
2022-09-12T22:05:15.753Z,100.00
2022-09-12T22:07:45.384Z,100.00
2022-09-12T22:10:15.495Z,100.00
2022-09-12T22:12:46.131Z,100.00
2022-09-12T22:15:39.617Z,100.00
2022-09-12T22:18:07.842Z,100.00
2022-09-12T22:20:38.887Z,100.00
2022-09-12T22:23:28.056Z,100.00
2022-09-12T22:25:56.732Z,100.00
2022-09-12T22:28:27.263Z,100.00
2022-09-12T22:30:57.537Z,100.00
2022-09-12T22:33:28.027Z,100.00
2022-09-12T22:35:57.408Z,100.00
2022-09-12T22:38:26.551Z,100.00
2022-09-12T22:40:56.735Z,100.00
2022-09-12T22:43:27.018Z,100.00
2022-09-12T22:45:57.627Z,100.00
2022-09-12T22:48:31.477Z,100.00
2022-09-12T22:51:00.167Z,100.00
2022-09-12T22:53:30.286Z,100.00
2022-09-12T22:56:05.345Z,100.00
2022-09-12T22:58:37.386Z,100.00
2022-09-12T23:01:08.401Z,100.00
2022-09-12T23:03:38.285Z,100.00
2022-09-12T23:06:07.327Z,100.00
2022-09-12T23:08:37.007Z,100.00
2022-09-12T23:11:06.990Z,100.00
2022-09-12T23:13:35.874Z,100.00
2022-09-12T23:16:06.484Z,100.00
2022-09-12T23:18:37.874Z,100.00
2022-09-12T23:21:09.342Z,100.00
2022-09-12T23:23:38.813Z,100.00
2022-09-12T23:26:08.990Z,100.00
2022-09-12T23:28:37.833Z,100.00
2022-09-12T23:31:07.182Z,100.00
2022-09-12T23:33:36.654Z,100.00
2022-09-12T23:36:11.115Z,100.00
2022-09-12T23:38:40.806Z,100.00
2022-09-12T23:41:09.778Z,100.00
2022-09-12T23:43:39.474Z,100.00
2022-09-12T23:46:08.209Z,100.00
2022-09-12T23:48:36.744Z,100.00
2022-09-12T23:51:04.981Z,100.00
2022-09-12T23:53:33.133Z,100.00
2022-09-12T23:56:03.992Z,100.00
2022-09-12T23:58:32.333Z,100.00
